createdAt,value
2019-02-16T00:02:28.663Z,79.55
2019-02-16T00:04:57.511Z,79.02
2019-02-16T00:07:26.399Z,79.19
2019-02-16T00:09:55.259Z,79.44
2019-02-16T00:12:24.427Z,79.51
2019-02-16T00:14:53.298Z,79.44
2019-02-16T00:17:22.157Z,79.42
2019-02-16T00:19:51.035Z,79.65
2019-02-16T00:22:19.899Z,81.17
2019-02-16T00:24:48.775Z,81.68
2019-02-16T00:27:17.665Z,81.35
2019-02-16T00:29:46.509Z,81.22
2019-02-16T00:32:15.939Z,81.14
2019-02-16T00:34:44.829Z,82.02
2019-02-16T00:37:13.760Z,82.77
2019-02-16T00:39:42.625Z,82.37
2019-02-16T00:42:11.490Z,82.72
2019-02-16T00:44:40.401Z,82.53
2019-02-16T00:47:09.272Z,82.18
2019-02-16T00:49:38.141Z,82.60
2019-02-16T00:52:07.019Z,82.89
2019-02-16T00:54:35.866Z,82.93
2019-02-16T00:57:04.753Z,83.30
2019-02-16T00:59:33.607Z,83.46
2019-02-16T01:02:02.502Z,83.47
2019-02-16T01:04:31.383Z,83.47
2019-02-16T01:07:00.247Z,84.05
2019-02-16T01:09:29.111Z,84.13
2019-02-16T01:11:58.016Z,84.87
2019-02-16T01:14:26.865Z,84.88
2019-02-16T01:16:55.743Z,84.65
2019-02-16T01:19:24.617Z,85.03
2019-02-16T01:21:53.475Z,84.97
2019-02-16T01:24:22.343Z,84.63
2019-02-16T01:26:51.224Z,84.77
2019-02-16T01:29:20.095Z,85.09
2019-02-16T01:31:48.958Z,84.71
2019-02-16T01:34:17.841Z,85.00
2019-02-16T01:36:46.707Z,85.27
2019-02-16T01:39:15.584Z,85.26
2019-02-16T01:41:44.453Z,85.19
2019-02-16T01:44:13.320Z,85.73
2019-02-16T01:46:42.197Z,86.20
2019-02-16T01:49:11.051Z,86.65
2019-02-16T01:51:39.947Z,86.42
2019-02-16T01:54:08.990Z,86.60
2019-02-16T01:56:37.881Z,86.37
2019-02-16T01:59:07.087Z,86.29
2019-02-16T02:01:35.969Z,86.53
2019-02-16T02:04:05.078Z,86.90
2019-02-16T02:06:33.947Z,87.15
2019-02-16T02:09:04.517Z,87.14
2019-02-16T02:11:33.377Z,86.13
2019-02-16T02:14:02.257Z,86.61
2019-02-16T02:16:31.137Z,86.15
2019-02-16T02:19:00.003Z,86.15
2019-02-16T02:21:28.858Z,85.71
2019-02-16T02:23:57.729Z,85.80
2019-02-16T02:26:26.588Z,85.96
2019-02-16T02:28:55.458Z,85.41
2019-02-16T02:31:24.323Z,84.90
2019-02-16T02:33:53.188Z,85.17
2019-02-16T02:36:22.047Z,85.22
2019-02-16T02:38:50.915Z,85.50
2019-02-16T02:41:19.797Z,85.52
2019-02-16T02:43:48.662Z,85.18
2019-02-16T02:46:17.515Z,84.81
2019-02-16T02:48:46.396Z,85.24
2019-02-16T02:51:15.254Z,85.36
2019-02-16T02:53:44.114Z,86.40
2019-02-16T02:56:12.966Z,86.66
2019-02-16T02:58:41.812Z,86.65
2019-02-16T03:01:10.719Z,87.04
2019-02-16T03:03:39.580Z,87.14
2019-02-16T03:06:08.458Z,86.64
2019-02-16T03:08:37.326Z,86.88
2019-02-16T03:11:06.184Z,86.38
2019-02-16T03:13:35.034Z,86.01
2019-02-16T03:16:03.917Z,86.24
2019-02-16T03:18:32.791Z,87.14
2019-02-16T03:21:01.649Z,87.91
2019-02-16T03:23:30.708Z,88.27
2019-02-16T03:26:05.285Z,88.08
2019-02-16T03:28:37.578Z,88.16
2019-02-16T03:31:39.679Z,87.53
2019-02-16T03:34:23.349Z,87.40
2019-02-16T03:37:14.195Z,87.25
2019-02-16T03:39:44.618Z,86.90
2019-02-16T03:42:13.510Z,86.95
2019-02-16T03:44:42.376Z,87.39
2019-02-16T03:47:11.251Z,87.12
2019-02-16T03:49:40.112Z,86.80
2019-02-16T03:52:13.983Z,86.43
2019-02-16T03:54:39.578Z,86.16
2019-02-16T03:57:08.446Z,85.91
2019-02-16T03:59:37.328Z,86.40
2019-02-16T04:02:06.197Z,86.29
2019-02-16T04:04:35.091Z,86.11
2019-02-16T04:07:03.982Z,86.44
2019-02-16T04:09:32.862Z,86.44
2019-02-16T04:12:01.756Z,86.32
2019-02-16T04:14:30.627Z,86.96
2019-02-16T04:16:59.480Z,87.63
2019-02-16T04:19:28.372Z,88.16
2019-02-16T04:21:57.235Z,88.04
2019-02-16T04:24:26.122Z,87.85
2019-02-16T04:26:54.968Z,87.96
2019-02-16T04:29:23.853Z,87.78
2019-02-16T04:31:52.743Z,88.04
2019-02-16T04:34:21.632Z,87.67
2019-02-16T04:36:50.546Z,88.60
2019-02-16T04:39:19.402Z,88.59
2019-02-16T04:41:48.302Z,88.87
2019-02-16T04:44:17.176Z,88.93
2019-02-16T04:46:46.032Z,88.75
2019-02-16T04:49:14.923Z,89.44
2019-02-16T04:51:43.790Z,89.22
2019-02-16T04:54:12.661Z,89.24
2019-02-16T04:56:41.537Z,89.13
2019-02-16T04:59:10.414Z,89.29
2019-02-16T05:01:39.312Z,89.56
2019-02-16T05:04:08.166Z,90.24
2019-02-16T05:06:37.046Z,90.54
2019-02-16T05:09:06.754Z,89.89
2019-02-16T05:11:35.622Z,89.94
2019-02-16T05:14:04.500Z,89.90
2019-02-16T05:16:33.369Z,90.50
2019-02-16T05:19:02.228Z,90.71
2019-02-16T05:21:31.096Z,91.41
2019-02-16T05:24:00.029Z,91.17
2019-02-16T05:26:28.890Z,91.10
2019-02-16T05:28:57.750Z,90.91
2019-02-16T05:31:26.655Z,90.76
2019-02-16T05:33:55.513Z,90.94
2019-02-16T05:36:24.370Z,91.37
2019-02-16T05:38:53.258Z,91.65
2019-02-16T05:41:22.130Z,91.84
2019-02-16T05:43:50.994Z,92.06
2019-02-16T05:46:19.932Z,91.62
2019-02-16T05:48:48.776Z,91.13
2019-02-16T05:51:17.704Z,91.09
2019-02-16T05:53:46.584Z,91.48
2019-02-16T05:56:15.456Z,91.81
2019-02-16T05:58:44.340Z,92.07
2019-02-16T06:01:13.196Z,91.81
2019-02-16T06:03:43.018Z,91.59
2019-02-16T06:06:11.861Z,91.66
2019-02-16T06:08:40.738Z,91.81
2019-02-16T06:11:09.622Z,92.28
2019-02-16T06:13:38.518Z,92.12
2019-02-16T06:16:07.374Z,92.22
2019-02-16T06:18:36.254Z,92.31
2019-02-16T06:21:05.122Z,92.23
2019-02-16T06:23:33.989Z,92.24
2019-02-16T06:26:02.856Z,92.50
2019-02-16T06:28:31.793Z,92.48
2019-02-16T06:31:00.739Z,92.40
2019-02-16T06:33:29.557Z,92.67
2019-02-16T06:36:00.076Z,91.79
2019-02-16T06:38:28.942Z,91.54
2019-02-16T06:40:57.822Z,91.60
2019-02-16T06:43:26.727Z,92.05
2019-02-16T06:45:55.601Z,92.06
2019-02-16T06:48:24.450Z,91.68
2019-02-16T06:50:53.333Z,91.81
2019-02-16T06:53:22.196Z,92.25
2019-02-16T06:55:52.772Z,92.19
2019-02-16T06:58:21.677Z,91.88
2019-02-16T07:00:50.520Z,91.52
2019-02-16T07:03:19.381Z,91.16
2019-02-16T07:05:48.252Z,91.27
2019-02-16T07:08:17.128Z,91.54
2019-02-16T07:10:45.996Z,91.30
2019-02-16T07:13:14.884Z,90.86
2019-02-16T07:15:45.392Z,90.37
2019-02-16T07:18:24.559Z,90.36
2019-02-16T07:20:53.442Z,90.06
2019-02-16T07:23:22.897Z,89.89
2019-02-16T07:25:51.847Z,89.13
2019-02-16T07:28:20.724Z,89.22
2019-02-16T07:30:49.616Z,89.37
2019-02-16T07:33:18.539Z,89.44
2019-02-16T07:35:47.455Z,89.53
2019-02-16T07:38:16.317Z,88.95
2019-02-16T07:40:45.179Z,88.67
2019-02-16T07:43:15.683Z,88.32
2019-02-16T07:45:49.109Z,87.91
2019-02-16T07:48:19.676Z,87.38
2019-02-16T07:50:55.900Z,87.25
2019-02-16T07:53:38.191Z,86.89
2019-02-16T07:56:08.691Z,85.79
2019-02-16T07:58:41.701Z,85.71
2019-02-16T08:01:21.201Z,85.18
2019-02-16T08:03:51.704Z,84.13
2019-02-16T08:06:22.214Z,82.99
2019-02-16T08:08:52.720Z,82.18
2019-02-16T08:11:29.025Z,81.61
2019-02-16T08:13:59.561Z,80.07
2019-02-16T08:16:39.285Z,78.67
2019-02-16T08:19:26.112Z,78.53
2019-02-16T08:21:56.622Z,77.89
2019-02-16T08:24:43.558Z,77.84
2019-02-16T08:27:20.291Z,77.62
2019-02-16T08:29:56.763Z,77.70
2019-02-16T08:32:43.838Z,76.43
2019-02-16T08:35:23.024Z,75.68
2019-02-16T08:37:54.579Z,74.10
2019-02-16T08:40:25.037Z,74.85
2019-02-16T08:43:10.901Z,74.30
2019-02-16T08:45:50.653Z,74.27
2019-02-16T08:48:24.220Z,72.87
2019-02-16T08:50:54.735Z,71.82
2019-02-16T08:53:25.254Z,71.25
2019-02-16T08:55:58.549Z,70.70
2019-02-16T08:58:29.066Z,69.87
2019-02-16T09:01:05.327Z,69.17
2019-02-16T09:03:35.831Z,68.68
2019-02-16T09:06:06.341Z,67.91
2019-02-16T09:08:45.928Z,66.87
2019-02-16T09:11:34.467Z,67.01
2019-02-16T09:14:04.975Z,66.55
2019-02-16T09:16:51.748Z,66.18
2019-02-16T09:19:22.238Z,65.22
2019-02-16T09:21:53.435Z,65.22
2019-02-16T09:24:23.636Z,65.11
2019-02-16T09:26:54.171Z,64.57
2019-02-16T09:29:24.676Z,64.57
2019-02-16T09:31:54.884Z,64.56
2019-02-16T09:34:25.080Z,63.47
2019-02-16T09:37:04.396Z,63.08
2019-02-16T09:39:34.597Z,62.85
2019-02-16T09:42:04.816Z,62.29
2019-02-16T09:44:40.661Z,62.61
2019-02-16T09:47:17.091Z,61.94
2019-02-16T09:49:59.343Z,61.81
2019-02-16T09:52:32.261Z,62.00
2019-02-16T09:55:04.953Z,61.84
2019-02-16T09:57:37.660Z,61.22
2019-02-16T10:00:10.936Z,60.52
2019-02-16T10:02:43.771Z,60.42
2019-02-16T10:05:13.971Z,60.04
2019-02-16T10:07:44.205Z,59.44
2019-02-16T10:10:14.389Z,59.77
2019-02-16T10:12:50.441Z,58.89
2019-02-16T10:15:20.653Z,57.97
2019-02-16T10:18:07.337Z,57.13
2019-02-16T10:20:53.657Z,56.98
2019-02-16T10:23:35.744Z,56.82
2019-02-16T10:26:11.807Z,56.32
2019-02-16T10:28:42.006Z,55.53
2019-02-16T10:31:20.437Z,55.25
2019-02-16T10:34:01.871Z,54.37
2019-02-16T10:36:32.096Z,53.35
2019-02-16T10:39:19.707Z,53.05
2019-02-16T10:41:49.961Z,51.58
2019-02-16T10:44:20.173Z,51.60
2019-02-16T10:46:53.171Z,51.43
2019-02-16T10:49:32.637Z,51.49
2019-02-16T10:52:06.079Z,50.73
2019-02-16T10:54:42.439Z,50.88
2019-02-16T10:57:27.949Z,50.83
2019-02-16T11:00:00.807Z,50.92
2019-02-16T11:02:31.025Z,50.26
2019-02-16T11:05:17.834Z,49.83
2019-02-16T11:07:48.063Z,50.08
2019-02-16T11:10:36.344Z,49.77
2019-02-16T11:13:09.417Z,49.78
2019-02-16T11:15:57.699Z,49.00
2019-02-16T11:18:44.120Z,49.00
2019-02-16T11:21:14.423Z,48.67
2019-02-16T11:23:45.479Z,48.42
2019-02-16T11:26:27.839Z,48.00
2019-02-16T11:29:00.714Z,48.00
2019-02-16T11:31:33.609Z,47.86
2019-02-16T11:34:15.850Z,47.86
2019-02-16T11:36:54.778Z,48.12
2019-02-16T11:39:34.447Z,47.89
2019-02-16T11:42:04.690Z,47.69
2019-02-16T11:44:37.573Z,47.39
2019-02-16T11:47:07.790Z,47.62
2019-02-16T11:49:40.755Z,46.88
2019-02-16T11:52:27.554Z,46.74
2019-02-16T11:54:57.763Z,46.74
2019-02-16T11:57:27.977Z,46.49
2019-02-16T12:00:01.219Z,46.54
2019-02-16T12:02:43.641Z,46.02
2019-02-16T12:05:13.832Z,46.00
2019-02-16T12:07:44.033Z,46.71
2019-02-16T12:10:14.257Z,46.78
2019-02-16T12:12:50.418Z,45.84
2019-02-16T12:15:20.617Z,45.19
2019-02-16T12:17:53.813Z,44.70
2019-02-16T12:20:33.110Z,44.47
2019-02-16T12:23:01.827Z,44.47
2019-02-16T12:25:48.285Z,44.41
2019-02-16T12:28:24.378Z,44.41
2019-02-16T12:30:57.325Z,45.45
2019-02-16T12:33:36.426Z,45.45
2019-02-16T12:36:09.316Z,44.52
2019-02-16T12:39:04.334Z,44.71
2019-02-16T12:41:27.545Z,44.79
2019-02-16T12:43:57.795Z,43.79
2019-02-16T12:46:33.699Z,44.07
2019-02-16T12:49:06.621Z,44.17
2019-02-16T12:51:51.827Z,44.15
2019-02-16T12:54:22.355Z,44.10
2019-02-16T12:56:52.555Z,44.48
2019-02-16T12:59:22.781Z,44.04
2019-02-16T13:01:55.694Z,44.73
2019-02-16T13:04:25.904Z,44.10
2019-02-16T13:07:04.921Z,43.91
2019-02-16T13:09:35.168Z,43.96
2019-02-16T13:12:05.390Z,43.14
2019-02-16T13:14:38.545Z,43.50
2019-02-16T13:17:11.779Z,42.96
2019-02-16T13:20:00.569Z,42.60
2019-02-16T13:22:36.923Z,41.78
2019-02-16T13:25:24.690Z,41.24
2019-02-16T13:28:10.668Z,41.12
2019-02-16T13:30:43.341Z,41.37
2019-02-16T13:33:19.477Z,41.01
2019-02-16T13:35:49.699Z,40.45
2019-02-16T13:38:19.910Z,40.52
2019-02-16T13:40:52.592Z,40.89
2019-02-16T13:43:28.771Z,40.56
2019-02-16T13:45:58.976Z,40.53
2019-02-16T13:48:29.230Z,40.76
2019-02-16T13:51:04.943Z,40.77
2019-02-16T13:53:46.946Z,41.00
2019-02-16T13:56:17.904Z,40.93
2019-02-16T13:58:48.139Z,40.95
2019-02-16T14:01:18.404Z,41.23
2019-02-16T14:03:51.567Z,41.02
2019-02-16T14:06:24.478Z,40.59
2019-02-16T14:08:54.716Z,39.99
2019-02-16T14:11:30.947Z,40.37
2019-02-16T14:14:10.420Z,40.52
2019-02-16T14:16:40.621Z,40.46
2019-02-16T14:19:09.205Z,40.86
2019-02-16T14:21:37.783Z,40.56
2019-02-16T14:24:06.403Z,40.92
2019-02-16T14:26:34.969Z,40.44
2019-02-16T14:29:03.519Z,40.90
2019-02-16T14:31:32.103Z,41.10
2019-02-16T14:34:00.693Z,41.29
2019-02-16T14:36:29.241Z,40.22
2019-02-16T14:38:59.454Z,40.60
2019-02-16T14:41:28.004Z,40.45
2019-02-16T14:43:56.593Z,40.78
2019-02-16T14:46:25.708Z,41.12
2019-02-16T14:48:54.317Z,41.33
2019-02-16T14:51:22.901Z,41.78
2019-02-16T14:53:51.530Z,41.98
2019-02-16T14:56:20.143Z,42.06
2019-02-16T14:58:48.698Z,41.72
2019-02-16T15:01:17.280Z,41.80
2019-02-16T15:03:45.955Z,42.00
2019-02-16T15:06:14.542Z,41.96
2019-02-16T15:08:43.102Z,41.92
2019-02-16T15:11:11.677Z,42.11
2019-02-16T15:13:40.232Z,42.41
2019-02-16T15:16:08.816Z,42.20
2019-02-16T15:18:37.390Z,42.87
2019-02-16T15:21:05.968Z,42.75
2019-02-16T15:23:34.542Z,42.73
2019-02-16T15:26:03.111Z,43.00
2019-02-16T15:28:31.693Z,42.78
2019-02-16T15:31:00.268Z,42.83
2019-02-16T15:33:28.870Z,43.50
2019-02-16T15:35:57.437Z,43.41
2019-02-16T15:38:26.005Z,42.90
2019-02-16T15:40:54.576Z,43.25
2019-02-16T15:43:24.100Z,43.37
2019-02-16T15:45:52.654Z,43.19
2019-02-16T15:48:21.232Z,43.79
2019-02-16T15:50:49.800Z,43.96
2019-02-16T15:53:18.357Z,44.28
2019-02-16T15:55:46.954Z,44.77
2019-02-16T15:58:15.543Z,44.41
2019-02-16T16:00:44.107Z,44.87
2019-02-16T16:03:12.671Z,44.77
2019-02-16T16:05:41.242Z,44.81
2019-02-16T16:08:11.466Z,45.60
2019-02-16T16:10:58.035Z,46.15
2019-02-16T16:13:46.275Z,46.49
2019-02-16T16:16:25.184Z,47.61
2019-02-16T16:18:55.392Z,48.35
2019-02-16T16:21:28.740Z,48.85
2019-02-16T16:23:59.861Z,48.31
2019-02-16T16:26:35.518Z,48.36
2019-02-16T16:29:17.360Z,48.64
2019-02-16T16:31:59.606Z,48.71
2019-02-16T16:34:35.569Z,49.97
2019-02-16T16:37:14.636Z,50.24
2019-02-16T16:40:01.136Z,49.71
2019-02-16T16:42:32.966Z,49.58
2019-02-16T16:45:12.116Z,49.46
2019-02-16T16:47:58.745Z,50.06
2019-02-16T16:50:28.957Z,50.87
2019-02-16T16:53:15.516Z,51.53
2019-02-16T16:55:45.717Z,52.35
2019-02-16T16:58:21.920Z,52.85
2019-02-16T17:00:52.131Z,53.08
2019-02-16T17:03:22.343Z,51.69
2019-02-16T17:05:58.286Z,52.53
2019-02-16T17:08:37.478Z,51.69
2019-02-16T17:11:10.729Z,51.30
2019-02-16T17:13:43.371Z,51.65
2019-02-16T17:16:13.581Z,51.04
2019-02-16T17:18:52.814Z,51.75
2019-02-16T17:21:23.081Z,52.62
2019-02-16T17:23:59.175Z,53.46
2019-02-16T17:26:37.459Z,53.97
2019-02-16T17:29:13.066Z,55.09
2019-02-16T17:31:58.453Z,55.09
2019-02-16T17:34:47.070Z,55.05
2019-02-16T17:37:17.301Z,54.42
2019-02-16T17:39:53.608Z,54.43
2019-02-16T17:42:35.839Z,53.23
2019-02-16T17:45:14.103Z,53.71
2019-02-16T17:47:44.322Z,53.45
2019-02-16T17:50:29.489Z,53.45
2019-02-16T17:53:11.655Z,53.67
2019-02-16T17:55:57.027Z,53.81
2019-02-16T17:58:32.744Z,53.81
2019-02-16T18:01:05.391Z,55.78
2019-02-16T18:03:41.400Z,55.78
2019-02-16T18:06:11.605Z,56.72
2019-02-16T18:08:58.446Z,57.01
2019-02-16T18:11:43.852Z,57.29
2019-02-16T18:14:14.080Z,57.29
2019-02-16T18:16:59.405Z,57.64
2019-02-16T18:19:29.620Z,56.99
2019-02-16T18:21:59.884Z,56.99
2019-02-16T18:24:30.102Z,57.72
2019-02-16T18:27:06.111Z,58.53
2019-02-16T18:29:52.756Z,58.82
2019-02-16T18:32:31.983Z,59.23
2019-02-16T18:35:23.885Z,59.23
2019-02-16T18:37:52.318Z,58.55
2019-02-16T18:40:22.657Z,58.03
2019-02-16T18:42:55.778Z,58.40
2019-02-16T18:45:38.350Z,59.41
2019-02-16T18:48:12.149Z,59.41
2019-02-16T18:50:48.267Z,60.01
2019-02-16T18:53:27.494Z,60.40
2019-02-16T18:56:00.417Z,60.28
2019-02-16T18:58:47.094Z,59.50
2019-02-16T19:01:35.188Z,59.47
2019-02-16T19:04:08.313Z,59.96
2019-02-16T19:06:54.663Z,60.10
2019-02-16T19:09:24.950Z,58.73
2019-02-16T19:11:57.531Z,58.57
2019-02-16T19:14:42.767Z,59.15
2019-02-16T19:17:12.992Z,59.72
2019-02-16T19:19:49.137Z,60.96
2019-02-16T19:22:22.265Z,61.79
2019-02-16T19:24:52.472Z,62.27
2019-02-16T19:27:25.571Z,62.91
2019-02-16T19:30:07.782Z,62.79
2019-02-16T19:32:53.329Z,62.82
2019-02-16T19:35:23.586Z,62.32
2019-02-16T19:38:10.030Z,62.78
2019-02-16T19:40:40.298Z,62.73
2019-02-16T19:43:14.180Z,63.23
2019-02-16T19:45:44.394Z,63.41
2019-02-16T19:48:16.761Z,63.17
2019-02-16T19:50:52.914Z,62.86
2019-02-16T19:53:29.136Z,62.82
2019-02-16T19:56:11.600Z,62.56
2019-02-16T19:58:58.113Z,62.49
2019-02-16T20:01:44.961Z,62.52
2019-02-16T20:04:29.992Z,62.54
2019-02-16T20:07:16.264Z,61.85
2019-02-16T20:09:46.489Z,62.22
2019-02-16T20:12:33.199Z,61.64
2019-02-16T20:15:08.938Z,61.47
2019-02-16T20:17:39.171Z,60.84
2019-02-16T20:20:26.553Z,61.63
2019-02-16T20:23:13.032Z,61.23
2019-02-16T20:25:43.255Z,59.74
2019-02-16T20:28:28.558Z,59.82
2019-02-16T20:31:10.744Z,59.85
2019-02-16T20:33:52.997Z,60.09
2019-02-16T20:36:23.206Z,59.88
2019-02-16T20:38:59.216Z,60.21
2019-02-16T20:41:29.438Z,61.35
2019-02-16T20:44:02.730Z,62.29
2019-02-16T20:46:41.566Z,62.04
2019-02-16T20:49:23.630Z,62.33
2019-02-16T20:51:53.840Z,62.53
2019-02-16T20:54:27.023Z,61.97
2019-02-16T20:57:09.224Z,62.54
2019-02-16T20:59:39.536Z,62.85
2019-02-16T21:02:16.019Z,63.53
2019-02-16T21:04:46.257Z,63.57
2019-02-16T21:07:32.648Z,64.36
2019-02-16T21:10:18.083Z,64.73
2019-02-16T21:12:54.531Z,64.16
2019-02-16T21:15:24.754Z,64.26
2019-02-16T21:18:03.676Z,64.65
2019-02-16T21:20:33.902Z,64.14
2019-02-16T21:23:20.383Z,64.50
2019-02-16T21:25:59.602Z,65.23
2019-02-16T21:28:32.787Z,65.23
2019-02-16T21:31:05.850Z,64.87
2019-02-16T21:33:36.510Z,64.63
2019-02-16T21:36:09.285Z,65.00
2019-02-16T21:38:51.471Z,64.97
2019-02-16T21:41:36.831Z,64.82
2019-02-16T21:44:09.654Z,65.16
2019-02-16T21:46:39.934Z,66.09
2019-02-16T21:49:12.855Z,66.40
2019-02-16T21:51:58.967Z,66.73
2019-02-16T21:54:47.679Z,67.28
2019-02-16T21:57:20.590Z,67.42
2019-02-16T21:59:53.249Z,66.94
2019-02-16T22:02:23.525Z,67.14
2019-02-16T22:04:56.655Z,67.81
2019-02-16T22:07:26.872Z,68.30
2019-02-16T22:10:12.130Z,67.22
2019-02-16T22:12:45.197Z,67.01
2019-02-16T22:15:13.969Z,67.56
2019-02-16T22:17:42.549Z,67.82
2019-02-16T22:20:11.378Z,67.47
2019-02-16T22:22:39.958Z,67.84
2019-02-16T22:25:08.712Z,67.75
2019-02-16T22:27:37.478Z,67.87
2019-02-16T22:30:09.285Z,67.89
2019-02-16T22:32:38.157Z,68.16
2019-02-16T22:35:07.471Z,68.37
2019-02-16T22:37:36.043Z,68.32
2019-02-16T22:40:05.381Z,69.36
2019-02-16T22:42:33.956Z,68.59
2019-02-16T22:45:02.549Z,69.17
2019-02-16T22:47:31.115Z,68.87
2019-02-16T22:49:59.685Z,68.62
2019-02-16T22:52:28.279Z,69.35
2019-02-16T22:54:57.154Z,69.31
2019-02-16T22:57:25.745Z,68.71
2019-02-16T22:59:54.639Z,68.98
2019-02-16T23:02:23.235Z,69.10
2019-02-16T23:04:51.855Z,69.50
2019-02-16T23:07:20.423Z,69.13
2019-02-16T23:09:48.991Z,69.46
2019-02-16T23:12:17.893Z,69.59
2019-02-16T23:14:46.807Z,69.24
2019-02-16T23:17:15.407Z,69.84
2019-02-16T23:19:44.354Z,70.37
2019-02-16T23:22:12.929Z,70.71
2019-02-16T23:24:41.521Z,71.13
2019-02-16T23:27:10.402Z,70.97
2019-02-16T23:29:39.306Z,71.28
2019-02-16T23:32:07.944Z,71.15
2019-02-16T23:34:36.801Z,71.40
2019-02-16T23:37:05.685Z,71.87
2019-02-16T23:39:34.577Z,71.19
2019-02-16T23:42:03.438Z,71.37
2019-02-16T23:44:32.028Z,71.30
2019-02-16T23:47:00.909Z,71.49
2019-02-16T23:49:29.782Z,71.74
2019-02-16T23:51:58.663Z,71.98
2019-02-16T23:54:27.569Z,71.68
2019-02-16T23:56:56.456Z,71.16
2019-02-16T23:59:25.323Z,71.43
